sensor_id;sensor_type;location;lat;lon;timestamp;temperature;humidity
68248;SHT30;55064;49.636;12.164;2023-05-29T00:00:31;12.64;72.05
68248;SHT30;55064;49.636;12.164;2023-05-29T00:02:58;12.68;71.40
68248;SHT30;55064;49.636;12.164;2023-05-29T00:05:23;12.72;71.37
68248;SHT30;55064;49.636;12.164;2023-05-29T00:07:49;12.64;71.61
68248;SHT30;55064;49.636;12.164;2023-05-29T00:10:16;12.58;72.07
68248;SHT30;55064;49.636;12.164;2023-05-29T00:12:42;12.51;72.28
68248;SHT30;55064;49.636;12.164;2023-05-29T00:15:08;12.42;72.67
68248;SHT30;55064;49.636;12.164;2023-05-29T00:17:37;12.35;72.46
68248;SHT30;55064;49.636;12.164;2023-05-29T00:20:05;12.30;72.47
68248;SHT30;55064;49.636;12.164;2023-05-29T00:22:39;12.26;72.89
68248;SHT30;55064;49.636;12.164;2023-05-29T00:25:07;12.09;73.33
68248;SHT30;55064;49.636;12.164;2023-05-29T00:27:33;12.10;72.51
68248;SHT30;55064;49.636;12.164;2023-05-29T00:30:00;11.75;73.42
68248;SHT30;55064;49.636;12.164;2023-05-29T00:32:26;11.90;72.78
68248;SHT30;55064;49.636;12.164;2023-05-29T00:34:53;11.79;73.41
68248;SHT30;55064;49.636;12.164;2023-05-29T00:37:18;11.83;73.37
68248;SHT30;55064;49.636;12.164;2023-05-29T00:39:46;11.69;73.40
68248;SHT30;55064;49.636;12.164;2023-05-29T00:42:14;11.66;73.49
68248;SHT30;55064;49.636;12.164;2023-05-29T00:44:41;11.63;73.53
68248;SHT30;55064;49.636;12.164;2023-05-29T00:47:09;11.55;73.95
68248;SHT30;55064;49.636;12.164;2023-05-29T00:49:37;11.58;74.11
68248;SHT30;55064;49.636;12.164;2023-05-29T00:52:03;11.66;73.75
68248;SHT30;55064;49.636;12.164;2023-05-29T00:54:33;11.54;74.17
68248;SHT30;55064;49.636;12.164;2023-05-29T00:56:59;11.18;76.35
68248;SHT30;55064;49.636;12.164;2023-05-29T00:59:30;11.18;76.23
68248;SHT30;55064;49.636;12.164;2023-05-29T01:01:56;11.24;75.95
68248;SHT30;55064;49.636;12.164;2023-05-29T01:04:25;11.17;76.39
68248;SHT30;55064;49.636;12.164;2023-05-29T01:06:53;11.18;75.50
68248;SHT30;55064;49.636;12.164;2023-05-29T01:09:21;11.21;75.01
68248;SHT30;55064;49.636;12.164;2023-05-29T01:18:00;11.39;74.46
68248;SHT30;55064;49.636;12.164;2023-05-29T01:22:58;11.38;75.10
68248;SHT30;55064;49.636;12.164;2023-05-29T01:28:41;11.35;75.25
68248;SHT30;55064;49.636;12.164;2023-05-29T01:31:12;11.30;75.05
68248;SHT30;55064;49.636;12.164;2023-05-29T01:33:42;11.10;75.95
68248;SHT30;55064;49.636;12.164;2023-05-29T01:36:08;11.07;76.12
68248;SHT30;55064;49.636;12.164;2023-05-29T01:38:36;11.13;75.86
68248;SHT30;55064;49.636;12.164;2023-05-29T01:41:03;11.11;75.89
68248;SHT30;55064;49.636;12.164;2023-05-29T01:43:30;11.06;75.92
68248;SHT30;55064;49.636;12.164;2023-05-29T01:45:58;11.07;75.27
68248;SHT30;55064;49.636;12.164;2023-05-29T01:48:24;11.04;75.41
68248;SHT30;55064;49.636;12.164;2023-05-29T01:50:50;11.10;75.49
68248;SHT30;55064;49.636;12.164;2023-05-29T01:53:17;11.08;75.68
68248;SHT30;55064;49.636;12.164;2023-05-29T01:55:42;11.01;75.53
68248;SHT30;55064;49.636;12.164;2023-05-29T01:58:08;11.08;75.82
68248;SHT30;55064;49.636;12.164;2023-05-29T02:00:35;11.01;75.95
68248;SHT30;55064;49.636;12.164;2023-05-29T02:03:00;10.99;75.83
68248;SHT30;55064;49.636;12.164;2023-05-29T02:05:28;10.97;75.54
68248;SHT30;55064;49.636;12.164;2023-05-29T02:07:54;10.90;75.69
68248;SHT30;55064;49.636;12.164;2023-05-29T02:10:22;10.90;75.51
68248;SHT30;55064;49.636;12.164;2023-05-29T02:12:48;10.83;75.77
68248;SHT30;55064;49.636;12.164;2023-05-29T02:15:15;10.80;76.24
68248;SHT30;55064;49.636;12.164;2023-05-29T02:17:41;10.81;75.75
68248;SHT30;55064;49.636;12.164;2023-05-29T02:20:10;10.77;76.33
68248;SHT30;55064;49.636;12.164;2023-05-29T02:22:37;10.87;75.56
68248;SHT30;55064;49.636;12.164;2023-05-29T02:25:03;10.93;75.31
68248;SHT30;55064;49.636;12.164;2023-05-29T02:27:29;10.83;75.68
68248;SHT30;55064;49.636;12.164;2023-05-29T02:29:54;10.90;75.14
68248;SHT30;55064;49.636;12.164;2023-05-29T02:32:23;10.87;75.40
68248;SHT30;55064;49.636;12.164;2023-05-29T02:35:03;10.73;75.78
68248;SHT30;55064;49.636;12.164;2023-05-29T02:40:42;10.68;75.74
68248;SHT30;55064;49.636;12.164;2023-05-29T02:46:29;10.48;76.41
68248;SHT30;55064;49.636;12.164;2023-05-29T02:49:05;10.46;76.43
68248;SHT30;55064;49.636;12.164;2023-05-29T02:51:37;10.42;76.59
68248;SHT30;55064;49.636;12.164;2023-05-29T03:00:50;10.30;77.78
68248;SHT30;55064;49.636;12.164;2023-05-29T03:13:18;10.35;77.08
68248;SHT30;55064;49.636;12.164;2023-05-29T03:15:45;10.22;77.39
68248;SHT30;55064;49.636;12.164;2023-05-29T03:21:16;10.38;76.44
68248;SHT30;55064;49.636;12.164;2023-05-29T03:23:42;10.35;76.28
68248;SHT30;55064;49.636;12.164;2023-05-29T03:26:07;10.37;76.73
68248;SHT30;55064;49.636;12.164;2023-05-29T03:28:33;10.34;76.26
68248;SHT30;55064;49.636;12.164;2023-05-29T03:31:01;10.31;76.32
68248;SHT30;55064;49.636;12.164;2023-05-29T03:33:27;10.31;75.86
68248;SHT30;55064;49.636;12.164;2023-05-29T03:35:53;10.28;76.39
68248;SHT30;55064;49.636;12.164;2023-05-29T03:38:25;10.34;75.71
68248;SHT30;55064;49.636;12.164;2023-05-29T03:40:50;10.25;76.27
68248;SHT30;55064;49.636;12.164;2023-05-29T03:43:17;10.27;76.23
68248;SHT30;55064;49.636;12.164;2023-05-29T03:45:42;10.30;76.06
68248;SHT30;55064;49.636;12.164;2023-05-29T03:48:09;10.27;76.12
68248;SHT30;55064;49.636;12.164;2023-05-29T03:50:34;10.32;75.99
68248;SHT30;55064;49.636;12.164;2023-05-29T03:52:59;10.35;76.20
68248;SHT30;55064;49.636;12.164;2023-05-29T03:55:31;10.38;76.03
68248;SHT30;55064;49.636;12.164;2023-05-29T03:57:59;10.41;75.70
68248;SHT30;55064;49.636;12.164;2023-05-29T04:00:24;10.48;75.52
68248;SHT30;55064;49.636;12.164;2023-05-29T04:02:49;11.14;74.28
68248;SHT30;55064;49.636;12.164;2023-05-29T04:05:16;11.99;71.61
68248;SHT30;55064;49.636;12.164;2023-05-29T04:07:41;12.71;69.26
68248;SHT30;55064;49.636;12.164;2023-05-29T04:10:08;13.11;67.04
68248;SHT30;55064;49.636;12.164;2023-05-29T04:12:34;13.50;65.72
68248;SHT30;55064;49.636;12.164;2023-05-29T04:15:02;13.78;65.26
68248;SHT30;55064;49.636;12.164;2023-05-29T04:17:36;14.37;63.85
68248;SHT30;55064;49.636;12.164;2023-05-29T04:23:28;15.16;61.92
68248;SHT30;55064;49.636;12.164;2023-05-29T04:26:08;15.31;61.03
68248;SHT30;55064;49.636;12.164;2023-05-29T04:28:38;15.53;59.98
68248;SHT30;55064;49.636;12.164;2023-05-29T04:31:05;15.47;60.11
68248;SHT30;55064;49.636;12.164;2023-05-29T04:43:25;16.44;58.51
68248;SHT30;55064;49.636;12.164;2023-05-29T04:49:35;15.34;60.42
68248;SHT30;55064;49.636;12.164;2023-05-29T04:52:11;15.81;59.70
68248;SHT30;55064;49.636;12.164;2023-05-29T04:54:42;15.92;59.60
68248;SHT30;55064;49.636;12.164;2023-05-29T04:57:28;16.39;58.51
68248;SHT30;55064;49.636;12.164;2023-05-29T04:59:53;16.16;58.87
68248;SHT30;55064;49.636;12.164;2023-05-29T05:02:24;16.61;58.01
68248;SHT30;55064;49.636;12.164;2023-05-29T05:05:05;16.67;57.77
68248;SHT30;55064;49.636;12.164;2023-05-29T05:10:56;17.14;56.61
68248;SHT30;55064;49.636;12.164;2023-05-29T05:13:52;17.40;55.65
68248;SHT30;55064;49.636;12.164;2023-05-29T05:23:01;15.22;61.31
68248;SHT30;55064;49.636;12.164;2023-05-29T05:32:06;14.13;65.53
68248;SHT30;55064;49.636;12.164;2023-05-29T05:37:53;13.68;67.47
68248;SHT30;55064;49.636;12.164;2023-05-29T05:40:42;13.68;67.01
68248;SHT30;55064;49.636;12.164;2023-05-29T05:43:11;13.59;67.91
68248;SHT30;55064;49.636;12.164;2023-05-29T05:48:58;13.74;67.96
68248;SHT30;55064;49.636;12.164;2023-05-29T05:54:29;13.68;68.27
68248;SHT30;55064;49.636;12.164;2023-05-29T06:00:31;13.58;68.73
68248;SHT30;55064;49.636;12.164;2023-05-29T06:03:17;13.57;68.58
68248;SHT30;55064;49.636;12.164;2023-05-29T06:09:11;13.89;68.14
68248;SHT30;55064;49.636;12.164;2023-05-29T06:11:59;14.00;67.51
68248;SHT30;55064;49.636;12.164;2023-05-29T06:14:33;14.02;67.01
68248;SHT30;55064;49.636;12.164;2023-05-29T06:23:42;14.16;67.84
68248;SHT30;55064;49.636;12.164;2023-05-29T06:26:31;14.49;67.10
68248;SHT30;55064;49.636;12.164;2023-05-29T06:28:58;14.45;66.32
68248;SHT30;55064;49.636;12.164;2023-05-29T06:31:57;14.34;67.48
68248;SHT30;55064;49.636;12.164;2023-05-29T06:34:51;14.60;66.24
68248;SHT30;55064;49.636;12.164;2023-05-29T06:41:07;14.75;65.79
68248;SHT30;55064;49.636;12.164;2023-05-29T06:43:33;14.85;65.43
68248;SHT30;55064;49.636;12.164;2023-05-29T06:49:38;15.13;66.02
68248;SHT30;55064;49.636;12.164;2023-05-29T06:52:04;15.22;65.22
68248;SHT30;55064;49.636;12.164;2023-05-29T06:58:18;15.37;64.87
68248;SHT30;55064;49.636;12.164;2023-05-29T07:01:03;15.41;64.54
68248;SHT30;55064;49.636;12.164;2023-05-29T07:03:41;15.50;64.62
68248;SHT30;55064;49.636;12.164;2023-05-29T07:06:07;15.58;64.16
68248;SHT30;55064;49.636;12.164;2023-05-29T07:08:32;15.64;63.52
68248;SHT30;55064;49.636;12.164;2023-05-29T07:10:58;15.77;63.27
68248;SHT30;55064;49.636;12.164;2023-05-29T07:13:29;15.84;63.07
68248;SHT30;55064;49.636;12.164;2023-05-29T07:16:12;15.92;62.30
68248;SHT30;55064;49.636;12.164;2023-05-29T07:25:07;16.43;62.42
68248;SHT30;55064;49.636;12.164;2023-05-29T07:27:33;16.58;60.92
68248;SHT30;55064;49.636;12.164;2023-05-29T07:33:12;16.84;61.04
68248;SHT30;55064;49.636;12.164;2023-05-29T07:39:09;17.11;58.55
68248;SHT30;55064;49.636;12.164;2023-05-29T07:44:49;17.25;57.68
68248;SHT30;55064;49.636;12.164;2023-05-29T07:50:36;17.73;57.30
68248;SHT30;55064;49.636;12.164;2023-05-29T07:53:19;17.99;56.07
68248;SHT30;55064;49.636;12.164;2023-05-29T07:59:25;18.61;54.91
68248;SHT30;55064;49.636;12.164;2023-05-29T08:01:58;19.02;54.82
68248;SHT30;55064;49.636;12.164;2023-05-29T08:04:25;19.23;53.17
68248;SHT30;55064;49.636;12.164;2023-05-29T08:07:03;19.42;53.26
68248;SHT30;55064;49.636;12.164;2023-05-29T08:13:15;19.73;52.19
68248;SHT30;55064;49.636;12.164;2023-05-29T08:19:33;20.28;50.59
68248;SHT30;55064;49.636;12.164;2023-05-29T08:25:21;20.45;44.68
68248;SHT30;55064;49.636;12.164;2023-05-29T08:27:57;20.42;44.90
68248;SHT30;55064;49.636;12.164;2023-05-29T08:30:25;20.19;43.65
68248;SHT30;55064;49.636;12.164;2023-05-29T08:32:50;20.52;43.89
68248;SHT30;55064;49.636;12.164;2023-05-29T08:35:42;20.57;42.99
68248;SHT30;55064;49.636;12.164;2023-05-29T08:38:08;20.76;43.30
68248;SHT30;55064;49.636;12.164;2023-05-29T08:40:53;20.49;42.03
68248;SHT30;55064;49.636;12.164;2023-05-29T08:43:46;20.04;43.22
68248;SHT30;55064;49.636;12.164;2023-05-29T08:46:19;20.56;43.13
68248;SHT30;55064;49.636;12.164;2023-05-29T08:48:58;20.85;43.37
68248;SHT30;55064;49.636;12.164;2023-05-29T08:51:27;21.08;42.48
68248;SHT30;55064;49.636;12.164;2023-05-29T08:54:20;21.10;42.89
68248;SHT30;55064;49.636;12.164;2023-05-29T08:56:57;21.28;42.42
68248;SHT30;55064;49.636;12.164;2023-05-29T09:02:45;21.07;42.66
68248;SHT30;55064;49.636;12.164;2023-05-29T09:05:11;21.82;42.63
68248;SHT30;55064;49.636;12.164;2023-05-29T09:07:38;22.17;42.14
68248;SHT30;55064;49.636;12.164;2023-05-29T09:10:08;21.79;41.07
68248;SHT30;55064;49.636;12.164;2023-05-29T09:12:36;22.25;41.75
68248;SHT30;55064;49.636;12.164;2023-05-29T09:15:16;21.60;41.52
68248;SHT30;55064;49.636;12.164;2023-05-29T09:17:42;21.82;41.72
68248;SHT30;55064;49.636;12.164;2023-05-29T09:20:14;21.92;41.06
68248;SHT30;55064;49.636;12.164;2023-05-29T09:22:42;21.43;41.01
68248;SHT30;55064;49.636;12.164;2023-05-29T09:25:11;21.96;41.00
68248;SHT30;55064;49.636;12.164;2023-05-29T09:27:39;22.34;40.43
68248;SHT30;55064;49.636;12.164;2023-05-29T09:30:05;21.98;40.54
68248;SHT30;55064;49.636;12.164;2023-05-29T09:32:32;22.11;41.20
68248;SHT30;55064;49.636;12.164;2023-05-29T09:35:00;22.15;40.24
68248;SHT30;55064;49.636;12.164;2023-05-29T09:37:26;22.35;40.02
68248;SHT30;55064;49.636;12.164;2023-05-29T09:39:51;22.82;40.10
68248;SHT30;55064;49.636;12.164;2023-05-29T09:42:20;22.83;40.06
68248;SHT30;55064;49.636;12.164;2023-05-29T09:44:48;22.45;39.90
68248;SHT30;55064;49.636;12.164;2023-05-29T09:47:18;22.65;39.42
68248;SHT30;55064;49.636;12.164;2023-05-29T09:49:46;22.53;38.92
68248;SHT30;55064;49.636;12.164;2023-05-29T09:52:12;22.73;38.86
68248;SHT30;55064;49.636;12.164;2023-05-29T09:54:44;22.93;38.80
68248;SHT30;55064;49.636;12.164;2023-05-29T09:57:17;23.08;38.38
68248;SHT30;55064;49.636;12.164;2023-05-29T09:59:46;22.73;37.87
68248;SHT30;55064;49.636;12.164;2023-05-29T10:02:16;22.80;37.45
68248;SHT30;55064;49.636;12.164;2023-05-29T10:04:42;23.45;36.57
68248;SHT30;55064;49.636;12.164;2023-05-29T10:07:31;23.95;35.27
68248;SHT30;55064;49.636;12.164;2023-05-29T10:10:03;22.83;36.48
68248;SHT30;55064;49.636;12.164;2023-05-29T10:12:31;23.30;37.01
68248;SHT30;55064;49.636;12.164;2023-05-29T10:15:01;23.83;36.67
68248;SHT30;55064;49.636;12.164;2023-05-29T10:17:32;24.16;36.10
68248;SHT30;55064;49.636;12.164;2023-05-29T10:20:01;23.02;35.40
68248;SHT30;55064;49.636;12.164;2023-05-29T10:22:31;23.40;35.44
68248;SHT30;55064;49.636;12.164;2023-05-29T10:24:57;24.12;34.89
68248;SHT30;55064;49.636;12.164;2023-05-29T10:27:24;24.09;35.33
68248;SHT30;55064;49.636;12.164;2023-05-29T10:40:06;23.78;35.76
68248;SHT30;55064;49.636;12.164;2023-05-29T10:45:47;24.10;34.44
68248;SHT30;55064;49.636;12.164;2023-05-29T10:50:45;23.93;34.16
68248;SHT30;55064;49.636;12.164;2023-05-29T10:53:16;24.25;34.70
68248;SHT30;55064;49.636;12.164;2023-05-29T10:55:45;23.83;35.23
68248;SHT30;55064;49.636;12.164;2023-05-29T10:58:13;23.96;34.75
68248;SHT30;55064;49.636;12.164;2023-05-29T11:00:42;24.54;34.33
68248;SHT30;55064;49.636;12.164;2023-05-29T11:03:14;24.58;34.45
68248;SHT30;55064;49.636;12.164;2023-05-29T11:06:04;23.18;35.04
68248;SHT30;55064;49.636;12.164;2023-05-29T11:11:15;24.28;33.92
68248;SHT30;55064;49.636;12.164;2023-05-29T11:13:40;24.38;32.49
68248;SHT30;55064;49.636;12.164;2023-05-29T11:19:08;25.81;30.95
68248;SHT30;55064;49.636;12.164;2023-05-29T11:24:22;25.81;31.22
68248;SHT30;55064;49.636;12.164;2023-05-29T11:26:51;25.85;29.89
68248;SHT30;55064;49.636;12.164;2023-05-29T11:29:28;25.03;30.74
68248;SHT30;55064;49.636;12.164;2023-05-29T11:31:58;24.52;30.42
68248;SHT30;55064;49.636;12.164;2023-05-29T11:34:28;24.16;30.79
68248;SHT30;55064;49.636;12.164;2023-05-29T11:36:54;24.89;31.12
68248;SHT30;55064;49.636;12.164;2023-05-29T11:39:21;24.99;30.15
68248;SHT30;55064;49.636;12.164;2023-05-29T11:41:50;25.47;29.51
68248;SHT30;55064;49.636;12.164;2023-05-29T11:44:16;25.20;29.60
68248;SHT30;55064;49.636;12.164;2023-05-29T11:46:41;25.44;28.85
68248;SHT30;55064;49.636;12.164;2023-05-29T11:49:06;24.48;29.61
68248;SHT30;55064;49.636;12.164;2023-05-29T11:51:32;24.61;29.93
68248;SHT30;55064;49.636;12.164;2023-05-29T11:53:57;25.00;30.16
68248;SHT30;55064;49.636;12.164;2023-05-29T11:56:27;25.75;29.69
68248;SHT30;55064;49.636;12.164;2023-05-29T11:58:53;25.61;28.82
68248;SHT30;55064;49.636;12.164;2023-05-29T12:01:20;25.95;28.48
68248;SHT30;55064;49.636;12.164;2023-05-29T12:03:46;25.64;29.66
68248;SHT30;55064;49.636;12.164;2023-05-29T12:06:30;25.47;30.10
68248;SHT30;55064;49.636;12.164;2023-05-29T12:08:56;25.50;28.35
68248;SHT30;55064;49.636;12.164;2023-05-29T12:11:24;25.31;28.73
68248;SHT30;55064;49.636;12.164;2023-05-29T12:14:00;25.89;28.88
68248;SHT30;55064;49.636;12.164;2023-05-29T12:16:30;26.45;28.32
68248;SHT30;55064;49.636;12.164;2023-05-29T12:19:01;27.05;28.15
68248;SHT30;55064;49.636;12.164;2023-05-29T12:21:27;26.96;27.98
68248;SHT30;55064;49.636;12.164;2023-05-29T12:23:54;26.51;27.98
68248;SHT30;55064;49.636;12.164;2023-05-29T12:26:23;26.19;29.57
68248;SHT30;55064;49.636;12.164;2023-05-29T12:28:51;26.29;28.35
68248;SHT30;55064;49.636;12.164;2023-05-29T12:31:27;25.89;28.22
68248;SHT30;55064;49.636;12.164;2023-05-29T12:33:53;26.61;28.80
68248;SHT30;55064;49.636;12.164;2023-05-29T12:36:18;26.80;27.60
68248;SHT30;55064;49.636;12.164;2023-05-29T12:38:51;26.65;28.94
68248;SHT30;55064;49.636;12.164;2023-05-29T12:41:27;26.88;28.57
68248;SHT30;55064;49.636;12.164;2023-05-29T12:44:00;27.02;27.58
68248;SHT30;55064;49.636;12.164;2023-05-29T12:46:27;27.12;28.12
68248;SHT30;55064;49.636;12.164;2023-05-29T12:48:56;25.92;28.87
68248;SHT30;55064;49.636;12.164;2023-05-29T12:51:26;25.93;28.56
68248;SHT30;55064;49.636;12.164;2023-05-29T12:53:53;25.37;28.41
68248;SHT30;55064;49.636;12.164;2023-05-29T12:56:24;24.90;28.38
68248;SHT30;55064;49.636;12.164;2023-05-29T12:58:51;24.80;27.74
68248;SHT30;55064;49.636;12.164;2023-05-29T13:01:17;25.02;28.95
68248;SHT30;55064;49.636;12.164;2023-05-29T13:03:42;25.52;28.14
68248;SHT30;55064;49.636;12.164;2023-05-29T13:06:07;26.06;28.09
68248;SHT30;55064;49.636;12.164;2023-05-29T13:08:35;26.43;27.98
68248;SHT30;55064;49.636;12.164;2023-05-29T13:11:03;26.58;28.42
68248;SHT30;55064;49.636;12.164;2023-05-29T13:13:31;26.06;29.18
68248;SHT30;55064;49.636;12.164;2023-05-29T13:15:56;24.95;29.66
68248;SHT30;55064;49.636;12.164;2023-05-29T13:18:22;25.12;29.67
68248;SHT30;55064;49.636;12.164;2023-05-29T13:20:47;25.75;29.36
68248;SHT30;55064;49.636;12.164;2023-05-29T13:23:12;26.23;29.38
68248;SHT30;55064;49.636;12.164;2023-05-29T13:25:38;25.51;31.02
68248;SHT30;55064;49.636;12.164;2023-05-29T13:28:06;24.62;30.45
68248;SHT30;55064;49.636;12.164;2023-05-29T13:30:31;24.96;30.15
68248;SHT30;55064;49.636;12.164;2023-05-29T13:32:59;25.64;29.76
68248;SHT30;55064;49.636;12.164;2023-05-29T13:35:24;25.71;29.95
68248;SHT30;55064;49.636;12.164;2023-05-29T13:37:50;25.84;29.14
68248;SHT30;55064;49.636;12.164;2023-05-29T13:40:15;25.24;30.29
68248;SHT30;55064;49.636;12.164;2023-05-29T13:42:41;25.57;29.45
68248;SHT30;55064;49.636;12.164;2023-05-29T13:45:11;25.57;28.74
68248;SHT30;55064;49.636;12.164;2023-05-29T13:47:37;25.17;29.14
68248;SHT30;55064;49.636;12.164;2023-05-29T13:50:05;24.96;29.97
68248;SHT30;55064;49.636;12.164;2023-05-29T13:52:33;25.68;28.40
68248;SHT30;55064;49.636;12.164;2023-05-29T13:54:58;25.16;28.88
68248;SHT30;55064;49.636;12.164;2023-05-29T13:57:30;25.05;29.03
68248;SHT30;55064;49.636;12.164;2023-05-29T13:59:56;25.51;29.07
68248;SHT30;55064;49.636;12.164;2023-05-29T14:02:24;25.16;28.54
68248;SHT30;55064;49.636;12.164;2023-05-29T14:04:50;25.74;29.65
68248;SHT30;55064;49.636;12.164;2023-05-29T14:07:17;25.50;29.27
68248;SHT30;55064;49.636;12.164;2023-05-29T14:09:43;25.68;28.76
68248;SHT30;55064;49.636;12.164;2023-05-29T14:12:10;25.95;29.98
68248;SHT30;55064;49.636;12.164;2023-05-29T14:14:36;25.72;30.08
68248;SHT30;55064;49.636;12.164;2023-05-29T14:17:02;25.31;29.65
68248;SHT30;55064;49.636;12.164;2023-05-29T14:19:30;25.02;29.78
68248;SHT30;55064;49.636;12.164;2023-05-29T14:21:58;25.75;30.19
68248;SHT30;55064;49.636;12.164;2023-05-29T14:24:26;26.29;29.38
68248;SHT30;55064;49.636;12.164;2023-05-29T14:26:55;26.51;28.34
68248;SHT30;55064;49.636;12.164;2023-05-29T14:29:23;26.96;27.96
68248;SHT30;55064;49.636;12.164;2023-05-29T14:31:48;26.37;27.98
68248;SHT30;55064;49.636;12.164;2023-05-29T14:34:14;26.45;28.82
68248;SHT30;55064;49.636;12.164;2023-05-29T14:36:39;26.50;28.67
68248;SHT30;55064;49.636;12.164;2023-05-29T14:39:06;26.67;28.40
68248;SHT30;55064;49.636;12.164;2023-05-29T14:41:31;26.44;28.01
68248;SHT30;55064;49.636;12.164;2023-05-29T14:43:58;25.92;28.55
68248;SHT30;55064;49.636;12.164;2023-05-29T14:46:25;25.60;28.79
68248;SHT30;55064;49.636;12.164;2023-05-29T14:48:53;25.75;28.37
68248;SHT30;55064;49.636;12.164;2023-05-29T14:51:19;26.22;28.23
68248;SHT30;55064;49.636;12.164;2023-05-29T14:53:46;25.84;28.39
68248;SHT30;55064;49.636;12.164;2023-05-29T14:56:16;25.52;29.02
68248;SHT30;55064;49.636;12.164;2023-05-29T14:58:46;25.44;28.77
68248;SHT30;55064;49.636;12.164;2023-05-29T15:01:19;25.65;28.60
68248;SHT30;55064;49.636;12.164;2023-05-29T15:03:45;25.93;27.63
68248;SHT30;55064;49.636;12.164;2023-05-29T15:06:17;25.67;28.03
68248;SHT30;55064;49.636;12.164;2023-05-29T15:08:43;25.98;28.73
68248;SHT30;55064;49.636;12.164;2023-05-29T15:11:09;25.96;28.28
68248;SHT30;55064;49.636;12.164;2023-05-29T15:13:35;24.44;28.90
68248;SHT30;55064;49.636;12.164;2023-05-29T15:16:01;25.05;29.76
68248;SHT30;55064;49.636;12.164;2023-05-29T15:18:28;25.68;29.26
68248;SHT30;55064;49.636;12.164;2023-05-29T15:20:56;25.99;29.42
68248;SHT30;55064;49.636;12.164;2023-05-29T15:23:24;26.22;29.45
68248;SHT30;55064;49.636;12.164;2023-05-29T15:25:50;26.47;28.67
68248;SHT30;55064;49.636;12.164;2023-05-29T15:28:16;26.65;28.23
68248;SHT30;55064;49.636;12.164;2023-05-29T15:30:45;26.77;27.90
68248;SHT30;55064;49.636;12.164;2023-05-29T15:33:10;26.82;28.29
68248;SHT30;55064;49.636;12.164;2023-05-29T15:35:39;26.91;28.28
68248;SHT30;55064;49.636;12.164;2023-05-29T15:38:06;26.96;27.39
68248;SHT30;55064;49.636;12.164;2023-05-29T15:40:35;26.82;28.58
68248;SHT30;55064;49.636;12.164;2023-05-29T15:43:01;26.96;29.00
68248;SHT30;55064;49.636;12.164;2023-05-29T15:45:28;26.92;29.02
68248;SHT30;55064;49.636;12.164;2023-05-29T15:47:57;26.94;29.07
68248;SHT30;55064;49.636;12.164;2023-05-29T15:50:22;26.74;28.22
68248;SHT30;55064;49.636;12.164;2023-05-29T15:52:48;26.26;28.21
68248;SHT30;55064;49.636;12.164;2023-05-29T15:55:17;25.92;28.01
68248;SHT30;55064;49.636;12.164;2023-05-29T15:57:43;25.61;28.53
68248;SHT30;55064;49.636;12.164;2023-05-29T16:00:09;25.61;28.65
68248;SHT30;55064;49.636;12.164;2023-05-29T16:02:40;25.19;30.55
68248;SHT30;55064;49.636;12.164;2023-05-29T16:05:07;25.13;29.54
68248;SHT30;55064;49.636;12.164;2023-05-29T16:07:32;25.37;29.49
68248;SHT30;55064;49.636;12.164;2023-05-29T16:10:03;25.50;29.58
68248;SHT30;55064;49.636;12.164;2023-05-29T16:12:28;25.60;29.06
68248;SHT30;55064;49.636;12.164;2023-05-29T16:14:57;25.45;29.20
68248;SHT30;55064;49.636;12.164;2023-05-29T16:17:25;24.90;29.21
68248;SHT30;55064;49.636;12.164;2023-05-29T16:19:53;25.10;29.55
68248;SHT30;55064;49.636;12.164;2023-05-29T16:22:24;24.85;29.61
68248;SHT30;55064;49.636;12.164;2023-05-29T16:24:49;24.78;30.21
68248;SHT30;55064;49.636;12.164;2023-05-29T16:27:15;25.05;29.64
68248;SHT30;55064;49.636;12.164;2023-05-29T16:29:45;25.44;29.91
68248;SHT30;55064;49.636;12.164;2023-05-29T16:32:13;24.75;29.96
68248;SHT30;55064;49.636;12.164;2023-05-29T16:34:40;24.92;30.53
68248;SHT30;55064;49.636;12.164;2023-05-29T16:37:06;24.95;30.96
68248;SHT30;55064;49.636;12.164;2023-05-29T16:39:35;25.41;31.13
68248;SHT30;55064;49.636;12.164;2023-05-29T16:42:04;24.79;30.47
68248;SHT30;55064;49.636;12.164;2023-05-29T16:44:31;24.83;31.10
68248;SHT30;55064;49.636;12.164;2023-05-29T16:46:56;24.88;31.05
68248;SHT30;55064;49.636;12.164;2023-05-29T16:49:21;24.95;31.34
68248;SHT30;55064;49.636;12.164;2023-05-29T16:51:49;24.69;31.44
68248;SHT30;55064;49.636;12.164;2023-05-29T16:54:16;24.52;32.29
68248;SHT30;55064;49.636;12.164;2023-05-29T16:56:44;24.25;32.15
68248;SHT30;55064;49.636;12.164;2023-05-29T16:59:10;24.27;32.45
68248;SHT30;55064;49.636;12.164;2023-05-29T17:01:36;24.40;33.36
68248;SHT30;55064;49.636;12.164;2023-05-29T17:04:02;24.30;33.19
68248;SHT30;55064;49.636;12.164;2023-05-29T17:06:28;24.17;32.51
68248;SHT30;55064;49.636;12.164;2023-05-29T17:08:56;24.25;32.52
68248;SHT30;55064;49.636;12.164;2023-05-29T17:11:21;24.14;33.55
68248;SHT30;55064;49.636;12.164;2023-05-29T17:13:48;24.16;32.72
68248;SHT30;55064;49.636;12.164;2023-05-29T17:16:13;24.33;33.54
68248;SHT30;55064;49.636;12.164;2023-05-29T17:18:39;24.03;32.05
68248;SHT30;55064;49.636;12.164;2023-05-29T17:21:04;23.90;31.64
68248;SHT30;55064;49.636;12.164;2023-05-29T17:23:32;24.09;32.34
68248;SHT30;55064;49.636;12.164;2023-05-29T17:25:57;23.89;32.15
68248;SHT30;55064;49.636;12.164;2023-05-29T17:28:25;23.73;32.86
68248;SHT30;55064;49.636;12.164;2023-05-29T17:30:51;23.73;33.10
68248;SHT30;55064;49.636;12.164;2023-05-29T17:33:16;23.61;33.38
68248;SHT30;55064;49.636;12.164;2023-05-29T17:35:42;23.69;33.29
68248;SHT30;55064;49.636;12.164;2023-05-29T17:38:07;23.85;34.54
68248;SHT30;55064;49.636;12.164;2023-05-29T17:40:35;23.69;39.56
68248;SHT30;55064;49.636;12.164;2023-05-29T17:43:03;23.15;41.59
68248;SHT30;55064;49.636;12.164;2023-05-29T17:45:34;22.94;42.44
68248;SHT30;55064;49.636;12.164;2023-05-29T17:47:59;22.92;42.40
68248;SHT30;55064;49.636;12.164;2023-05-29T17:50:27;22.82;43.15
68248;SHT30;55064;49.636;12.164;2023-05-29T17:53:00;22.62;43.05
68248;SHT30;55064;49.636;12.164;2023-05-29T17:55:25;22.48;43.80
68248;SHT30;55064;49.636;12.164;2023-05-29T17:57:53;22.27;43.50
68248;SHT30;55064;49.636;12.164;2023-05-29T18:00:22;22.34;43.73
68248;SHT30;55064;49.636;12.164;2023-05-29T18:02:50;22.34;43.70
68248;SHT30;55064;49.636;12.164;2023-05-29T18:05:17;22.42;43.51
68248;SHT30;55064;49.636;12.164;2023-05-29T18:07:44;22.28;43.74
68248;SHT30;55064;49.636;12.164;2023-05-29T18:10:09;22.21;43.91
68248;SHT30;55064;49.636;12.164;2023-05-29T18:12:35;22.28;43.76